createdAt,value
2022-08-27T00:00:35.997Z,99682.78
2022-08-27T00:01:10.075Z,99687.41
2022-08-27T00:01:53.096Z,99690.38
2022-08-27T00:02:35.404Z,99687.41
2022-08-27T00:03:15.993Z,99674.03
2022-08-27T00:03:56.187Z,99678.97
2022-08-27T00:04:37.068Z,99679.84
2022-08-27T00:05:22.100Z,99677.28
2022-08-27T00:06:02.002Z,99679.84
2022-08-27T00:06:42.061Z,99675.22
2022-08-27T00:07:23.075Z,99676.25
2022-08-27T00:08:03.115Z,99679.19
2022-08-27T00:08:44.015Z,99654.94
2022-08-27T00:09:27.046Z,99679.25
2022-08-27T00:10:08.009Z,99666.78
2022-08-27T00:10:48.083Z,99670.19
2022-08-27T00:11:31.995Z,99679.47
2022-08-27T00:12:14.185Z,99673.97
2022-08-27T00:12:55.039Z,99672.47
2022-08-27T00:13:35.789Z,99667.22
2022-08-27T00:14:16.996Z,99666.78
2022-08-27T00:14:58.764Z,99660.03
2022-08-27T00:15:40.003Z,99655.38
2022-08-27T00:16:23.779Z,99659.13
2022-08-27T00:17:05.026Z,99662.06
2022-08-27T00:17:46.275Z,99655.94
2022-08-27T00:18:27.033Z,99646.44
2022-08-27T00:19:07.099Z,99655.03
2022-08-27T00:19:47.998Z,99652.25
2022-08-27T00:20:31.049Z,99653.16
2022-08-27T00:21:11.986Z,99656.72
2022-08-27T00:21:52.096Z,99636.25
2022-08-27T00:22:32.040Z,99650.19
2022-08-27T00:23:12.081Z,99653.56
2022-08-27T00:23:54.079Z,99652.31
2022-08-27T00:24:34.142Z,99652.28
2022-08-27T00:25:15.982Z,99653.78
2022-08-27T00:25:56.074Z,99659.22
2022-08-27T00:26:43.091Z,99659.69
2022-08-27T00:27:25.078Z,99654.88
2022-08-27T00:28:05.994Z,99650.25
2022-08-27T00:28:47.812Z,99649.63
2022-08-27T00:29:29.908Z,99655.94
2022-08-27T00:30:14.098Z,99658.69
2022-08-27T00:30:55.005Z,99655.38
2022-08-27T00:31:35.063Z,99649.53
2022-08-27T00:32:16.991Z,99656.28
2022-08-27T00:32:57.090Z,99663.03
2022-08-27T00:33:36.978Z,99662.81
2022-08-27T00:34:17.040Z,99661.13
2022-08-27T00:34:59.037Z,99661.34
2022-08-27T00:35:39.279Z,99660.28
2022-08-27T00:36:20.969Z,99658.38
2022-08-27T00:37:01.086Z,99664.47
2022-08-27T00:37:41.981Z,99651.16
2022-08-27T00:38:23.055Z,99656.25
2022-08-27T00:39:02.966Z,99660.88
2022-08-27T00:39:44.052Z,99662.59
2022-08-27T00:40:28.104Z,99659.84
2022-08-27T00:41:08.747Z,99662.63
2022-08-27T00:41:49.981Z,99656.69
2022-08-27T00:42:31.110Z,99667.47
2022-08-27T00:43:11.967Z,99653.94
2022-08-27T00:43:59.046Z,99662.63
2022-08-27T00:44:39.977Z,99660.09
2022-08-27T00:45:23.127Z,99670.88
2022-08-27T00:46:15.064Z,99673.63
2022-08-27T00:47:01.475Z,99675.13
2022-08-27T00:47:50.993Z,99681.47
2022-08-27T00:48:35.195Z,99681.25
2022-08-27T00:49:25.998Z,99684.22
2022-08-27T00:50:15.034Z,99681.25
2022-08-27T00:50:59.996Z,99673.22
2022-08-27T00:51:39.991Z,99677.91
2022-08-27T00:52:33.060Z,99686.50
2022-08-27T00:53:30.945Z,99685.47
2022-08-27T00:54:06.499Z,99668.13
2022-08-27T00:54:55.948Z,99679.53
2022-08-27T00:55:37.029Z,99669.63
2022-08-27T00:56:38.944Z,99666.44
2022-08-27T00:57:20.011Z,99660.94
2022-08-27T00:58:36.960Z,99673.19
2022-08-27T00:59:31.932Z,99669.41
2022-08-27T01:00:29.961Z,99665.19
2022-08-27T01:01:30.986Z,99673.22
2022-08-27T01:02:29.124Z,99676.59
2022-08-27T01:03:10.026Z,99670.69
2022-08-27T01:03:53.961Z,99671.97
2022-08-27T01:04:35.022Z,99678.06
2022-08-27T01:05:22.118Z,99679.34
2022-08-27T01:06:04.099Z,99678.72
2022-08-27T01:06:44.928Z,99674.91
2022-08-27T01:07:28.658Z,99667.09
2022-08-27T01:08:17.020Z,99679.78
2022-08-27T01:09:07.141Z,99674.72
2022-08-27T01:09:50.054Z,99664.34
2022-08-27T01:10:33.068Z,99681.69
2022-08-27T01:11:13.947Z,99673.44
2022-08-27T01:11:55.188Z,99680.00
2022-08-27T01:12:37.935Z,99680.22
2022-08-27T01:13:59.367Z,99676.22
2022-08-27T01:14:45.934Z,99678.56
2022-08-27T01:15:41.931Z,99681.94
2022-08-27T01:16:39.986Z,99684.03
2022-08-27T01:17:33.925Z,99675.59
2022-08-27T01:18:28.953Z,99664.63
2022-08-27T01:19:14.954Z,99680.25
2022-08-27T01:20:08.269Z,99674.09
2022-08-27T01:21:28.973Z,99684.25
2022-08-27T01:22:32.248Z,99669.66
2022-08-27T01:23:34.922Z,99682.31
2022-08-27T01:24:45.024Z,99672.41
2022-08-27T01:25:40.928Z,99668.22
2022-08-27T01:26:35.936Z,99662.31
2022-08-27T01:27:38.933Z,99671.59
2022-08-27T01:28:35.870Z,99673.72
2022-08-27T01:29:32.921Z,99663.13
2022-08-27T01:30:14.958Z,99674.13
2022-08-27T01:30:54.984Z,99673.72
2022-08-27T01:31:35.994Z,99669.25
2022-08-27T01:32:38.372Z,99677.72
2022-08-27T01:33:23.945Z,99677.50
2022-08-27T01:34:08.988Z,99671.59
2022-08-27T01:34:49.931Z,99676.88
2022-08-27T01:35:30.952Z,99669.72
2022-08-27T01:36:08.131Z,99672.03
2022-08-27T01:36:54.917Z,99657.47
2022-08-27T01:37:34.279Z,99674.53
2022-08-27T01:38:31.032Z,99664.22
2022-08-27T01:39:05.454Z,99654.72
2022-08-27T01:39:52.984Z,99669.25
2022-08-27T01:40:29.031Z,99669.94
2022-08-27T01:41:09.972Z,99682.81
2022-08-27T01:41:52.389Z,99675.59
2022-08-27T01:42:44.896Z,99667.56
2022-08-27T01:43:24.973Z,99673.50
2022-08-27T01:44:04.905Z,99681.28
2022-08-27T01:44:57.010Z,99678.78
2022-08-27T01:45:43.903Z,99679.63
2022-08-27T01:46:29.963Z,99680.69
2022-08-27T01:47:04.063Z,99679.84
2022-08-27T01:47:50.913Z,99666.97
2022-08-27T01:48:28.005Z,99677.09
2022-08-27T01:49:16.900Z,99680.06
2022-08-27T01:49:50.964Z,99672.03
2022-08-27T01:50:45.902Z,99681.72
2022-08-27T01:51:20.335Z,99682.34
2022-08-27T01:51:59.920Z,99690.16
2022-08-27T01:52:40.036Z,99684.06
2022-08-27T01:53:25.910Z,99679.22
2022-08-27T01:54:06.268Z,99678.59
2022-08-27T01:54:46.922Z,99685.31
2022-08-27T01:55:30.972Z,99683.84
2022-08-27T01:56:11.889Z,99686.59
2022-08-27T01:56:51.965Z,99684.91
2022-08-27T01:57:32.934Z,99686.16
2022-08-27T01:58:14.105Z,99685.13
2022-08-27T01:58:55.891Z,99673.72
2022-08-27T01:59:39.343Z,99676.91
2022-08-27T02:00:32.960Z,99675.19
2022-08-27T02:01:18.353Z,99682.16
2022-08-27T02:02:01.938Z,99671.16
2022-08-27T02:02:48.927Z,99676.91
2022-08-27T02:03:43.983Z,99686.78
2022-08-27T02:04:37.885Z,99663.34
2022-08-27T02:05:32.895Z,99683.16
2022-08-27T02:06:38.895Z,99685.13
2022-08-27T02:07:32.906Z,99674.56
2022-08-27T02:08:14.926Z,99655.97
2022-08-27T02:08:54.973Z,99668.44
2022-08-27T02:09:35.888Z,99654.50
2022-08-27T02:10:19.509Z,99676.25
2022-08-27T02:10:59.875Z,99663.19
2022-08-27T02:11:44.789Z,99662.72
2022-08-27T02:12:24.901Z,99664.81
2022-08-27T02:13:19.919Z,99665.25
2022-08-27T02:14:13.884Z,99666.53
2022-08-27T02:15:07.904Z,99672.63
2022-08-27T02:16:01.923Z,99645.38
2022-08-27T02:16:55.905Z,99663.56
2022-08-27T02:17:49.901Z,99667.38
2022-08-27T02:18:36.918Z,99660.59
2022-08-27T02:19:10.953Z,99653.00
2022-08-27T02:20:00.896Z,99673.25
2022-08-27T02:20:34.989Z,99657.22
2022-08-27T02:21:21.875Z,99662.06
2022-08-27T02:22:00.102Z,99662.69
2022-08-27T02:22:47.879Z,99666.72
2022-08-27T02:23:22.963Z,99666.09
2022-08-27T02:24:02.901Z,99667.34
2022-08-27T02:24:42.981Z,99667.34
2022-08-27T02:25:25.892Z,99647.91
2022-08-27T02:26:05.937Z,99671.13
2022-08-27T02:26:46.883Z,99669.47
2022-08-27T02:27:27.941Z,99674.94
2022-08-27T02:28:08.989Z,99667.13
2022-08-27T02:28:48.945Z,99669.47
2022-08-27T02:29:30.975Z,99666.94
2022-08-27T02:30:12.940Z,99658.88
2022-08-27T02:30:52.857Z,99660.59
2022-08-27T02:31:33.041Z,99661.00
2022-08-27T02:32:17.658Z,99664.38
2022-08-27T02:33:13.541Z,99653.00
2022-08-27T02:33:54.872Z,99655.53
2022-08-27T02:34:42.904Z,99657.22
2022-08-27T02:35:37.856Z,99657.63
2022-08-27T02:36:31.865Z,99655.34
2022-08-27T02:37:25.856Z,99655.13
2022-08-27T02:38:20.875Z,99645.84
2022-08-27T02:39:14.871Z,99644.13
2022-08-27T02:40:01.965Z,99653.84
2022-08-27T02:40:37.225Z,99651.31
2022-08-27T02:41:24.858Z,99640.97
2022-08-27T02:41:58.933Z,99629.13
2022-08-27T02:42:46.859Z,99640.53
2022-08-27T02:43:23.632Z,99656.38
2022-08-27T02:44:13.801Z,99651.09
2022-08-27T02:44:48.343Z,99647.91
2022-08-27T02:45:27.901Z,99644.78
2022-08-27T02:46:08.028Z,99636.31
2022-08-27T02:46:50.003Z,99636.09
2022-08-27T02:47:34.937Z,99638.22
2022-08-27T02:48:15.864Z,99654.28
2022-08-27T02:48:55.911Z,99639.06
2022-08-27T02:49:36.858Z,99636.53
2022-08-27T02:50:18.968Z,99645.19
2022-08-27T02:50:59.872Z,99627.25
2022-08-27T02:51:40.981Z,99651.53
2022-08-27T02:52:24.953Z,99630.19
2022-08-27T02:53:08.137Z,99640.78
2022-08-27T02:53:50.860Z,99639.94
2022-08-27T02:54:33.057Z,99645.00
2022-08-27T02:55:17.162Z,99637.00
2022-08-27T02:55:57.933Z,99636.13
2022-08-27T02:56:37.887Z,99642.84
2022-08-27T02:57:17.923Z,99647.09
2022-08-27T02:57:58.872Z,99635.75
2022-08-27T02:58:39.318Z,99637.19
2022-08-27T02:59:19.858Z,99649.22
2022-08-27T03:00:00.917Z,99630.66
2022-08-27T03:00:41.955Z,99638.66
2022-08-27T03:01:22.152Z,99627.25
2022-08-27T03:02:02.057Z,99644.81
2022-08-27T03:02:44.048Z,99642.00
2022-08-27T03:03:24.828Z,99628.13
2022-08-27T03:04:05.021Z,99629.78
2022-08-27T03:04:45.849Z,99642.44
2022-08-27T03:05:26.924Z,99626.84
2022-08-27T03:06:06.858Z,99646.66
2022-08-27T03:06:47.939Z,99642.44
2022-08-27T03:07:30.891Z,99636.97
2022-08-27T03:08:12.087Z,99639.28
2022-08-27T03:08:53.234Z,99637.84
2022-08-27T03:09:34.462Z,99637.00
2022-08-27T03:10:16.818Z,99637.81
2022-08-27T03:10:56.952Z,99625.38
2022-08-27T03:11:38.848Z,99623.66
2022-08-27T03:12:18.923Z,99631.91
2022-08-27T03:12:59.887Z,99637.81
2022-08-27T03:13:45.949Z,99644.56
2022-08-27T03:14:25.841Z,99644.56
2022-08-27T03:15:05.900Z,99641.81
2022-08-27T03:15:46.873Z,99643.91
2022-08-27T03:16:26.949Z,99635.25
2022-08-27T03:17:26.856Z,99627.25
2022-08-27T03:18:25.885Z,99643.69
2022-08-27T03:19:24.102Z,99639.50
2022-08-27T03:20:18.826Z,99628.75
2022-08-27T03:21:14.833Z,99642.44
2022-08-27T03:22:08.840Z,99638.88
2022-08-27T03:23:02.814Z,99629.78
2022-08-27T03:23:50.875Z,99639.50
2022-08-27T03:24:24.902Z,99631.91
2022-08-27T03:25:12.839Z,99626.63
2022-08-27T03:25:56.959Z,99616.28
2022-08-27T03:26:52.866Z,99619.25
2022-08-27T03:27:27.898Z,99631.50
2022-08-27T03:28:22.476Z,99609.97
2022-08-27T03:29:03.847Z,99623.88
2022-08-27T03:30:00.730Z,99637.19
2022-08-27T03:31:08.854Z,99629.38
2022-08-27T03:32:02.828Z,99634.22
2022-08-27T03:32:57.840Z,99636.53
2022-08-27T03:33:53.824Z,99632.75
2022-08-27T03:34:34.930Z,99635.03
2022-08-27T03:35:15.890Z,99636.53
2022-08-27T03:35:56.813Z,99641.16
2022-08-27T03:36:31.395Z,99631.69
2022-08-27T03:37:19.831Z,99641.38
2022-08-27T03:37:53.640Z,99639.91
2022-08-27T03:38:41.847Z,99635.47
2022-08-27T03:39:15.520Z,99626.81
2022-08-27T03:39:55.875Z,99637.78
2022-08-27T03:40:29.965Z,99635.88
2022-08-27T03:41:04.644Z,99649.59
2022-08-27T03:41:54.785Z,99644.13
2022-08-27T03:42:29.857Z,99638.63
2022-08-27T03:43:03.597Z,99624.69
2022-08-27T03:43:43.826Z,99634.81
2022-08-27T03:44:21.211Z,99636.50
2022-08-27T03:44:55.632Z,99639.03
2022-08-27T03:46:00.249Z,99639.69
2022-08-27T03:46:31.070Z,99642.19
2022-08-27T03:47:05.749Z,99650.88
2022-08-27T03:47:46.810Z,99649.59
2022-08-27T03:48:21.904Z,99648.53
2022-08-27T03:48:57.464Z,99644.13
2022-08-27T03:49:38.821Z,99626.81
2022-08-27T03:50:13.897Z,99629.34
2022-08-27T03:50:57.852Z,99648.53
2022-08-27T03:51:37.889Z,99644.09
2022-08-27T03:52:17.823Z,99637.72
2022-08-27T03:52:58.887Z,99640.28
2022-08-27T03:53:39.809Z,99643.84
2022-08-27T03:54:19.913Z,99637.28
2022-08-27T03:54:59.812Z,99634.50
2022-08-27T03:55:40.922Z,99636.81
2022-08-27T03:56:21.858Z,99642.78
2022-08-27T03:57:01.896Z,99645.56
2022-08-27T03:57:42.827Z,99641.50
2022-08-27T03:58:23.888Z,99638.16
2022-08-27T03:59:03.797Z,99634.56
2022-08-27T03:59:44.913Z,99640.31
2022-08-27T04:00:24.802Z,99635.44
2022-08-27T04:01:05.062Z,99644.09
2022-08-27T04:01:45.891Z,99648.75
2022-08-27T04:02:26.956Z,99635.03
2022-08-27T04:03:06.879Z,99644.94
2022-08-27T04:03:47.875Z,99641.59
2022-08-27T04:04:27.804Z,99629.94
2022-08-27T04:05:07.894Z,99643.03
2022-08-27T04:05:48.812Z,99652.31
2022-08-27T04:06:28.860Z,99644.94
2022-08-27T04:07:08.832Z,99650.03
2022-08-27T04:07:49.864Z,99654.03
2022-08-27T04:08:32.794Z,99652.13
2022-08-27T04:09:13.934Z,99642.84
2022-08-27T04:09:53.813Z,99651.72
2022-08-27T04:10:35.146Z,99659.72
2022-08-27T04:11:15.821Z,99654.91
2022-08-27T04:11:56.872Z,99647.06
2022-08-27T04:12:36.830Z,99634.81
2022-08-27T04:13:17.413Z,99644.97
2022-08-27T04:13:57.780Z,99658.25
2022-08-27T04:14:38.977Z,99650.88
2022-08-27T04:15:19.781Z,99655.09
2022-08-27T04:16:01.182Z,99657.19
2022-08-27T04:16:42.820Z,99662.03
2022-08-27T04:17:22.871Z,99658.03
2022-08-27T04:18:02.826Z,99665.59
2022-08-27T04:18:42.853Z,99659.25
2022-08-27T04:19:26.537Z,99655.25
2022-08-27T04:20:34.068Z,99659.72
2022-08-27T04:21:17.784Z,99662.47
2022-08-27T04:21:57.853Z,99652.53
2022-08-27T04:22:37.809Z,99669.00
2022-08-27T04:23:24.830Z,99644.31
2022-08-27T04:23:58.658Z,99657.38
2022-08-27T04:24:49.793Z,99651.69
2022-08-27T04:25:23.756Z,99661.19
2022-08-27T04:26:10.788Z,99660.97
2022-08-27T04:26:47.469Z,99647.06
2022-08-27T04:27:35.760Z,99664.59
2022-08-27T04:28:10.357Z,99660.16
2022-08-27T04:28:51.813Z,99661.00
2022-08-27T04:29:25.862Z,99665.88
2022-08-27T04:30:00.657Z,99654.25
2022-08-27T04:30:46.872Z,99655.94
2022-08-27T04:31:21.873Z,99665.66
2022-08-27T04:31:56.873Z,99659.09
2022-08-27T04:32:37.788Z,99645.84
2022-08-27T04:33:11.849Z,99639.91
2022-08-27T04:33:50.941Z,99655.53
2022-08-27T04:34:30.806Z,99649.63
2022-08-27T04:35:07.070Z,99662.28
2022-08-27T04:35:41.423Z,99658.88
2022-08-27T04:36:23.784Z,99663.53
2022-08-27T04:36:57.850Z,99654.69
2022-08-27T04:37:33.093Z,99655.13
2022-08-27T04:38:13.778Z,99648.34
2022-08-27T04:38:47.840Z,99650.91
2022-08-27T04:39:21.477Z,99654.69
2022-08-27T04:40:02.896Z,99659.97
2022-08-27T04:40:55.205Z,99653.84
2022-08-27T04:41:33.197Z,99661.22
2022-08-27T04:42:13.784Z,99661.84
2022-08-27T04:42:47.838Z,99663.53
2022-08-27T04:43:21.504Z,99660.16
2022-08-27T04:44:04.762Z,99655.94
2022-08-27T04:44:39.840Z,99661.63
2022-08-27T04:45:19.786Z,99665.22
2022-08-27T04:45:59.876Z,99652.56
2022-08-27T04:46:49.489Z,99657.22
2022-08-27T04:47:30.941Z,99663.75
2022-08-27T04:48:10.860Z,99663.13
2022-08-27T04:48:50.876Z,99656.19
2022-08-27T04:49:33.795Z,99657.84
2022-08-27T04:50:14.833Z,99665.47
2022-08-27T04:51:01.797Z,99672.19
2022-08-27T04:51:36.816Z,99663.59
2022-08-27T04:52:25.764Z,99669.06
2022-08-27T04:52:59.821Z,99671.56
2022-08-27T04:53:46.753Z,99666.72
2022-08-27T04:54:25.995Z,99658.28
2022-08-27T04:55:20.776Z,99660.38
2022-08-27T04:55:58.843Z,99669.47
2022-08-27T04:56:40.794Z,99667.56
2022-08-27T04:57:21.026Z,99678.53
2022-08-27T04:58:00.764Z,99657.63
2022-08-27T04:58:40.810Z,99677.50
2022-08-27T04:59:21.742Z,99670.28
2022-08-27T05:00:01.956Z,99674.53
2022-08-27T05:00:59.805Z,99671.56
2022-08-27T05:01:47.932Z,99677.31
2022-08-27T05:02:41.913Z,99672.00
2022-08-27T05:03:37.758Z,99663.59
2022-08-27T05:04:31.905Z,99676.66
2022-08-27T05:05:25.808Z,99680.69
2022-08-27T05:06:20.743Z,99679.81
2022-08-27T05:07:08.779Z,99682.38
2022-08-27T05:07:43.394Z,99673.09
2022-08-27T05:08:30.765Z,99680.25
2022-08-27T05:09:05.817Z,99686.81
2022-08-27T05:09:52.748Z,99677.09
2022-08-27T05:10:26.813Z,99666.53
2022-08-27T05:11:21.889Z,99666.13
2022-08-27T05:11:56.189Z,99681.53
2022-08-27T05:12:35.776Z,99679.41
2022-08-27T05:13:15.816Z,99676.66
2022-08-27T05:13:56.744Z,99680.03
2022-08-27T05:14:36.950Z,99674.16
2022-08-27T05:15:17.748Z,99669.06
2022-08-27T05:16:09.866Z,99673.69
2022-08-27T05:16:50.741Z,99668.22
2022-08-27T05:17:31.392Z,99680.03
2022-08-27T05:18:14.905Z,99669.69
2022-08-27T05:18:57.755Z,99685.75
2022-08-27T05:19:38.734Z,99685.34
2022-08-27T05:20:19.702Z,99681.72
2022-08-27T05:21:00.753Z,99685.53
2022-08-27T05:21:45.337Z,99678.34
2022-08-27T05:22:26.758Z,99672.47
2022-08-27T05:23:07.813Z,99683.00
2022-08-27T05:23:48.756Z,99679.41
2022-08-27T05:24:29.843Z,99686.41
2022-08-27T05:25:12.782Z,99685.53
2022-08-27T05:25:54.821Z,99674.97
2022-08-27T05:26:36.731Z,99689.31
2022-08-27T05:27:17.713Z,99665.28
2022-08-27T05:27:58.740Z,99685.09
2022-08-27T05:28:38.810Z,99676.47
2022-08-27T05:29:20.776Z,99671.59
2022-08-27T05:30:00.790Z,99677.28
2022-08-27T05:30:52.435Z,99675.19
2022-08-27T05:31:36.863Z,99685.53
2022-08-27T05:32:16.735Z,99678.75
2022-08-27T05:32:56.830Z,99674.78
2022-08-27T05:33:37.722Z,99676.66
2022-08-27T05:34:21.956Z,99675.59
2022-08-27T05:35:06.769Z,99675.59
2022-08-27T05:35:48.797Z,99683.41
2022-08-27T05:36:37.740Z,99692.69
2022-08-27T05:37:28.400Z,99687.19
2022-08-27T05:38:08.895Z,99686.97
2022-08-27T05:38:51.623Z,99682.31
2022-08-27T05:39:31.716Z,99688.03
2022-08-27T05:40:19.892Z,99689.28
2022-08-27T05:41:34.278Z,99682.97
2022-08-27T05:42:28.741Z,99690.13
2022-08-27T05:43:24.729Z,99700.25
2022-08-27T05:44:40.569Z,99702.38
2022-08-27T05:45:35.743Z,99707.44
2022-08-27T05:46:33.774Z,99711.66
2022-08-27T05:47:27.737Z,99704.88
2022-08-27T05:48:21.788Z,99696.84
2022-08-27T05:49:15.715Z,99698.53
2022-08-27T05:50:10.738Z,99698.16
2022-08-27T05:50:57.756Z,99681.88
2022-08-27T05:51:41.422Z,99701.09
2022-08-27T05:52:28.712Z,99695.59
2022-08-27T05:53:02.773Z,99699.63
2022-08-27T05:53:50.737Z,99697.72
2022-08-27T05:54:24.786Z,99688.63
2022-08-27T05:55:12.719Z,99682.50
2022-08-27T05:55:52.187Z,99682.09
2022-08-27T05:56:35.742Z,99683.13
2022-08-27T05:57:15.769Z,99684.16
2022-08-27T05:57:56.714Z,99684.84
2022-08-27T05:58:55.269Z,99685.00
2022-08-27T05:59:54.732Z,99687.34
2022-08-27T06:00:53.222Z,99681.41
2022-08-27T06:01:34.718Z,99673.16
2022-08-27T06:02:14.765Z,99669.56
2022-08-27T06:02:48.824Z,99678.44
2022-08-27T06:03:35.716Z,99681.38
2022-08-27T06:04:11.889Z,99673.50
2022-08-27T06:05:04.811Z,99676.88
2022-08-27T06:05:38.841Z,99664.63
2022-08-27T06:06:26.720Z,99669.88
2022-08-27T06:07:07.760Z,99680.63
2022-08-27T06:08:01.708Z,99670.50
2022-08-27T06:08:55.721Z,99677.81
2022-08-27T06:09:50.729Z,99673.81
2022-08-27T06:10:44.702Z,99679.75
2022-08-27T06:11:38.706Z,99680.53
2022-08-27T06:12:27.998Z,99678.44
2022-08-27T06:13:03.411Z,99674.25
2022-08-27T06:13:50.724Z,99673.59
2022-08-27T06:14:24.873Z,99676.28
2022-08-27T06:15:12.713Z,99670.78
2022-08-27T06:15:46.850Z,99668.44
2022-08-27T06:16:34.699Z,99681.13
2022-08-27T06:17:09.764Z,99682.75
2022-08-27T06:17:49.730Z,99678.31
2022-08-27T06:18:29.851Z,99683.59
2022-08-27T06:19:10.685Z,99678.97
2022-08-27T06:19:50.830Z,99664.22
2022-08-27T06:20:31.704Z,99676.88
2022-08-27T06:21:12.996Z,99673.47
2022-08-27T06:22:00.719Z,99663.13
2022-08-27T06:22:57.750Z,99666.47
2022-08-27T06:23:52.711Z,99682.28
2022-08-27T06:24:46.689Z,99678.44
2022-08-27T06:25:40.675Z,99684.75
2022-08-27T06:26:37.709Z,99689.41
2022-08-27T06:27:32.708Z,99685.38
2022-08-27T06:28:19.736Z,99685.81
2022-08-27T06:28:53.810Z,99684.50
2022-08-27T06:29:41.699Z,99690.44
2022-08-27T06:30:17.674Z,99683.25
2022-08-27T06:31:45.686Z,99688.81
2022-08-27T06:32:20.987Z,99683.88
2022-08-27T06:33:07.717Z,99691.69
2022-08-27T06:33:49.772Z,99692.47
2022-08-27T06:34:43.724Z,99684.91
2022-08-27T06:35:37.693Z,99693.34
2022-08-27T06:36:36.701Z,99688.94
2022-08-27T06:37:30.674Z,99692.94
2022-08-27T06:38:24.712Z,99692.03
2022-08-27T06:39:12.725Z,99690.53
2022-08-27T06:39:54.795Z,99705.50
2022-08-27T06:40:35.731Z,99686.59
2022-08-27T06:41:23.577Z,99689.88
2022-08-27T06:42:05.686Z,99696.81
2022-08-27T06:42:45.925Z,99691.97
2022-08-27T06:43:25.701Z,99702.50
2022-08-27T06:44:19.774Z,99695.31
2022-08-27T06:45:13.660Z,99690.56
2022-08-27T06:46:07.769Z,99690.56
2022-08-27T06:47:01.729Z,99700.34
2022-08-27T06:47:55.688Z,99697.75
2022-08-27T06:48:51.677Z,99699.91
2022-08-27T06:49:39.698Z,99710.47
2022-08-27T06:50:16.466Z,99705.59
2022-08-27T06:51:12.667Z,99706.81
2022-08-27T06:51:50.759Z,99701.31
2022-08-27T06:52:38.685Z,99700.06
2022-08-27T06:53:12.753Z,99717.66
2022-08-27T06:54:02.684Z,99702.66
2022-08-27T06:54:36.797Z,99689.72
2022-08-27T06:55:17.691Z,99706.22
2022-08-27T06:55:57.762Z,99694.13
2022-08-27T06:56:38.673Z,99699.34
2022-08-27T06:57:19.093Z,99698.50
2022-08-27T06:57:58.657Z,99695.97
2022-08-27T06:58:38.781Z,99700.16
2022-08-27T06:59:22.704Z,99691.78
2022-08-27T07:00:02.736Z,99701.34
2022-08-27T07:00:48.423Z,99682.28
2022-08-27T07:01:36.844Z,99693.72
2022-08-27T07:02:17.694Z,99686.53
2022-08-27T07:02:57.815Z,99686.75
2022-08-27T07:03:37.650Z,99697.84
2022-08-27T07:04:25.376Z,99700.91
2022-08-27T07:05:14.665Z,99694.56
2022-08-27T07:06:01.701Z,99706.81
2022-08-27T07:06:55.674Z,99706.03
2022-08-27T07:07:49.652Z,99699.69
2022-08-27T07:08:43.682Z,99699.25
2022-08-27T07:09:47.637Z,99711.63
2022-08-27T07:10:42.666Z,99706.75
2022-08-27T07:11:23.675Z,99702.44
2022-08-27T07:12:03.794Z,99700.53
2022-08-27T07:12:44.672Z,99693.59
2022-08-27T07:13:25.063Z,99701.53
2022-08-27T07:14:05.660Z,99692.66
2022-08-27T07:14:45.964Z,99708.13
2022-08-27T07:15:26.970Z,99696.94
2022-08-27T07:16:19.169Z,99703.25
2022-08-27T07:17:00.683Z,99696.66
2022-08-27T07:17:41.105Z,99697.66
2022-08-27T07:18:27.241Z,99709.03
2022-08-27T07:19:09.764Z,99713.28
2022-08-27T07:19:52.660Z,99711.28
2022-08-27T07:20:33.035Z,99714.56
2022-08-27T07:21:14.671Z,99703.09
2022-08-27T07:21:54.704Z,99700.66
2022-08-27T07:22:36.686Z,99692.38
2022-08-27T07:23:16.718Z,99699.09
2022-08-27T07:23:59.646Z,99709.84
2022-08-27T07:24:40.023Z,99709.84
2022-08-27T07:25:26.669Z,99702.25
2022-08-27T07:26:07.109Z,99705.16
2022-08-27T07:26:49.660Z,99695.91
2022-08-27T07:27:29.721Z,99707.69
2022-08-27T07:28:10.745Z,99706.41
2022-08-27T07:28:53.487Z,99703.94
2022-08-27T07:29:34.647Z,99693.28
2022-08-27T07:30:18.757Z,99693.75
2022-08-27T07:30:59.681Z,99690.38
2022-08-27T07:31:40.770Z,99707.03
2022-08-27T07:32:20.656Z,99699.13
2022-08-27T07:33:00.721Z,99710.78
2022-08-27T07:33:46.249Z,99693.59
2022-08-27T07:34:32.760Z,99704.44
2022-08-27T07:35:15.640Z,99691.81
2022-08-27T07:35:56.818Z,99698.53
2022-08-27T07:36:36.645Z,99702.28
2022-08-27T07:37:16.705Z,99696.66
2022-08-27T07:37:56.817Z,99697.66
2022-08-27T07:38:36.739Z,99690.56
2022-08-27T07:39:17.668Z,99686.31
2022-08-27T07:39:51.420Z,99707.09
2022-08-27T07:40:39.632Z,99709.53
2022-08-27T07:41:15.691Z,99687.47
2022-08-27T07:42:20.636Z,99702.66
2022-08-27T07:43:14.465Z,99697.31
2022-08-27T07:44:19.763Z,99697.91
2022-08-27T07:44:54.346Z,99688.88
2022-08-27T07:45:43.693Z,99706.09
2022-08-27T07:46:17.442Z,99699.28
2022-08-27T07:47:05.623Z,99691.00
2022-08-27T07:47:39.609Z,99703.88
2022-08-27T07:48:27.621Z,99698.34
2022-08-27T07:49:02.100Z,99698.81
2022-08-27T07:49:44.834Z,99712.25
2022-08-27T07:50:18.826Z,99706.28
2022-08-27T07:50:53.889Z,99707.13
2022-08-27T07:51:38.630Z,99695.72
2022-08-27T07:52:12.789Z,99703.69
2022-08-27T07:52:49.553Z,99706.75
2022-08-27T07:53:30.629Z,99688.06
2022-08-27T07:54:05.810Z,99698.56
2022-08-27T07:54:42.005Z,99706.50
2022-08-27T07:55:22.656Z,99702.00
2022-08-27T07:55:56.690Z,99702.16
2022-08-27T07:56:30.392Z,99701.81
2022-08-27T07:57:11.625Z,99710.22
2022-08-27T07:57:47.969Z,99705.13
2022-08-27T07:58:22.322Z,99700.44
2022-08-27T07:59:02.639Z,99702.56
2022-08-27T07:59:36.710Z,99701.63
2022-08-27T08:00:11.172Z,99708.63
2022-08-27T08:00:52.644Z,99695.13
2022-08-27T08:01:27.837Z,99701.44
2022-08-27T08:02:04.862Z,99697.94
2022-08-27T08:02:46.685Z,99700.09
2022-08-27T08:03:22.615Z,99706.69
2022-08-27T08:03:56.786Z,99680.88
2022-08-27T08:04:38.513Z,99699.75
2022-08-27T08:05:19.800Z,99695.44
2022-08-27T08:06:00.677Z,99695.81
2022-08-27T08:06:44.721Z,99701.47
2022-08-27T08:07:24.613Z,99696.53
2022-08-27T08:08:04.684Z,99703.41
2022-08-27T08:08:47.626Z,99689.94
2022-08-27T08:09:32.698Z,99701.47
2022-08-27T08:10:16.745Z,99701.09
2022-08-27T08:10:57.845Z,99687.31
2022-08-27T08:11:41.777Z,99703.13
2022-08-27T08:12:26.592Z,99708.44
2022-08-27T08:13:06.630Z,99694.41
2022-08-27T08:13:47.696Z,99705.34
2022-08-27T08:14:28.697Z,99691.75
2022-08-27T08:15:10.755Z,99697.66
2022-08-27T08:15:53.631Z,99707.03
2022-08-27T08:16:34.764Z,99704.63
2022-08-27T08:17:14.793Z,99700.88
2022-08-27T08:17:55.964Z,99701.16
2022-08-27T08:18:36.641Z,99696.25
2022-08-27T08:19:17.720Z,99696.00
2022-08-27T08:20:19.819Z,99694.09
2022-08-27T08:21:10.703Z,99716.19
2022-08-27T08:21:53.024Z,99710.06
2022-08-27T08:22:39.658Z,99694.09
2022-08-27T08:23:13.685Z,99707.78
2022-08-27T08:23:49.151Z,99694.53
2022-08-27T08:24:30.605Z,99708.53
2022-08-27T08:25:04.828Z,99702.28
2022-08-27T08:25:38.651Z,99705.44
2022-08-27T08:26:19.608Z,99705.19
2022-08-27T08:26:53.660Z,99703.63
2022-08-27T08:27:28.042Z,99712.88
2022-08-27T08:28:07.637Z,99689.56
2022-08-27T08:28:41.683Z,99709.50
2022-08-27T08:29:17.968Z,99701.22
2022-08-27T08:29:58.615Z,99706.59
2022-08-27T08:30:34.445Z,99704.94
2022-08-27T08:31:09.452Z,99704.72
2022-08-27T08:31:50.685Z,99697.72
2022-08-27T08:32:24.657Z,99701.56
2022-08-27T08:32:58.324Z,99704.09
2022-08-27T08:33:42.638Z,99706.13
2022-08-27T08:34:17.912Z,99702.53
2022-08-27T08:34:53.115Z,99697.25